Latest Weather Observations for Canberra

IDN60801

Issued at 3:03 pm EST Saturday 2 July 2022 (issued every 10 minutes, with the page automatically refreshed every 10 minutes)

About weather observations | Map of weather stations | Latest weather observations for NSW | Other Formats
Station Details ID: 070351 Name: CANBERRA AIRPORT Lat: -35.31 Lon: 149.20 Height: 577.05 m
Data from the previous 72 hours. | See also: Recent months at Canberra
Date/Time
EST
Temp
°C
App
Temp
°C
Dew
Point
°C
Rel
Hum
%
Delta-T
°C
Wind Press
QNH
hPa
Press
MSL
hPa
Rain since
9am
mm
Dir  Spd
km/h
Gust
km/h
Spd
kts
Gust
kts
02/03:00pm 9.8 4.9 5.0 72 2.2 SSE 20 30 11 16 1023.8 1025.0 0.0
02/02:30pm 10.0 4.4 5.4 73 2.2 SSE 24 33 13 18 1023.8 1025.0 0.0
02/02:00pm 9.9 5.2 5.3 73 2.2 SSE 19 28 10 15 1023.9 1025.2 0.0
02/01:30pm 10.0 4.8 5.4 73 2.2 SSE 22 33 12 18 1023.9 1025.2 0.0
02/01:00pm 9.7 4.5 5.3 74 2.1 S 22 35 12 19 1024.3 1025.6 0.0
02/12:30pm 9.6 4.9 5.2 74 2.1 SSE 19 30 10 16 1024.6 1025.9 0.0
02/12:00pm 10.3 5.1 5.7 73 2.2 S 22 33 12 18 1025.0 1026.3 0.0
02/11:30am 9.4 5.2 5.9 79 1.7 S 17 22 9 12 1025.4 1026.7 0.0
02/11:00am 8.8 4.0 5.4 79 1.6 S 20 30 11 16 1025.6 1026.9 0.0
02/10:30am 8.8 4.5 5.4 79 1.6 S 17 26 9 14 1026.0 1027.3 0.0
02/10:00am 8.7 4.0 5.3 79 1.6 SSW 19 24 10 13 1026.2 1027.5 0.0
02/09:30am 8.7 4.3 4.9 77 1.8 SSE 17 26 9 14 1026.1 1027.4 0.0
02/09:00am 7.6 2.6 4.7 82 1.3 S 20 28 11 15 1026.3 1027.6 9.0
02/08:30am 7.0 2.6 4.5 84 1.1 S 17 24 9 13 1026.3 1027.6 9.0
02/08:00am 6.8 1.3 4.1 83 1.2 S 22 28 12 15 1026.4 1027.7 9.0
02/07:30am 6.5 1.6 4.2 85 1.0 S 19 22 10 12 1026.4 1027.7 9.0
02/07:00am 6.5 1.6 4.2 85 1.0 S 19 24 10 13 1026.2 1027.5 9.0
02/06:30am 6.3 1.8 4.1 86 1.0 S 17 20 9 11 1026.0 1027.3 9.0
02/06:00am 6.3 1.8 4.1 86 1.0 S 17 19 9 10 1025.8 1027.1 9.0
02/05:30am 6.4 2.3 4.2 86 1.0 S 15 17 8 9 1025.6 1026.9 9.0
02/05:00am 6.1 2.4 4.3 88 0.8 S 13 15 7 8 1025.4 1026.7 9.0
02/04:30am 5.9 2.1 4.1 88 0.8 S 13 15 7 8 1025.6 1026.9 9.0
02/04:00am 5.8 2.0 4.1 89 0.7 S 13 13 7 7 1025.6 1026.9 9.0
02/03:30am 6.0 2.6 4.2 88 0.8 S 11 13 6 7 1025.5 1026.8 9.0
02/03:00am 5.8 2.4 4.1 89 0.7 SSE 11 13 6 7 1025.5 1026.8 9.0
02/02:30am 6.1 2.0 4.3 88 0.8 S 15 19 8 10 1025.5 1026.8 9.0
02/02:00am 6.0 1.9 4.2 88 0.8 S 15 19 8 10 1025.7 1027.0 9.0
02/01:30am 6.1 1.6 4.1 87 0.9 S 17 20 9 11 1025.9 1027.2 9.0
02/01:00am 6.3 2.2 4.3 87 0.9 S 15 17 8 9 1026.0 1027.3 9.0
02/12:30am 6.0 2.7 4.6 91 0.6 S 11 13 6 7 1026.1 1027.4 9.0
02/12:00am 6.0 2.3 4.6 91 0.6 S 13 15 7 8 1026.2 1027.5 9.0
 
Date/Time
EST
Temp
°C
App
Temp
°C
Dew
Point
°C
Rel
Hum
%
Delta-T
°C
Wind Press
QNH
hPa
Press
MSL
hPa
Rain since
9am
mm
Dir  Spd
km/h
Gust
km/h
Spd
kts
Gust
kts
01/11:30pm 5.6 2.3 4.6 93 0.4 S 11 15 6 8 1026.4 1027.7 9.0
01/11:00pm 5.8 2.8 4.3 90 0.7 S 9 13 5 7 1026.6 1027.9 9.0
01/10:30pm 6.0 1.9 4.2 88 0.8 S 15 20 8 11 1026.5 1027.8 9.0
01/10:00pm 6.1 2.4 4.7 91 0.6 SSE 13 19 7 10 1026.6 1027.9 9.0
01/09:30pm 5.8 3.0 5.1 95 0.3 S 9 15 5 8 1026.5 1027.8 9.0
01/09:00pm 6.5 2.9 5.1 91 0.6 SSE 13 19 7 10 1026.7 1028.0 9.0
01/08:30pm 6.5 3.0 5.6 94 0.4 SSE 13 17 7 9 1026.9 1028.3 9.0
01/08:00pm 6.3 3.3 6.2 99 0.0 SSE 11 13 6 7 1026.7 1028.0 9.0
01/07:30pm 6.0 3.0 5.9 99 0.0 SSE 11 15 6 8 1026.7 1028.0 8.8
01/07:00pm 6.2 3.6 6.1 99 0.0 SE 9 11 5 6 1026.6 1027.9 8.6
01/06:30pm 6.3 3.3 6.2 99 0.0 SSE 11 13 6 7 1026.4 1027.7 8.6
01/06:00pm 6.2 3.6 6.1 99 0.0 S 9 11 5 6 1026.0 1027.3 8.6
01/05:30pm 6.4 4.2 6.3 99 0.0 SSE 7 9 4 5 1025.9 1027.2 8.4
01/05:00pm 6.5 4.3 6.4 99 0.0 SSE 7 11 4 6 1025.8 1027.1 8.0
01/04:30pm 6.8 3.9 6.5 98 0.1 SSE 11 13 6 7 1025.6 1026.9 7.2
01/04:00pm 7.1 4.3 7.0 99 0.0 SSE 11 17 6 9 1025.6 1026.9 7.0
01/03:30pm 7.1 5.1 7.0 99 0.0 SSE 7 9 4 5 1025.6 1026.9 6.6
01/03:00pm 7.0 5.1 6.9 99 0.0 SSE 6 7 3 4 1025.6 1026.9 6.0
01/02:35pm 7.1 5.3 7.0 99 0.0 SSE 6 7 3 4 1025.5 1026.8 5.4
01/02:30pm 7.1 5.1 7.0 99 0.0 SSE 7 9 4 5 1025.4 1026.7 5.4
01/02:05pm 7.0 4.6 6.9 99 0.0 SSE 9 13 5 7 1025.7 1027.0 4.6
01/02:00pm 7.0 4.2 6.9 99 0.0 S 11 13 6 7 1025.7 1027.0 4.4
01/01:30pm 7.0 4.5 6.7 98 0.1 S 9 11 5 6 1026.0 1027.3 3.4
01/01:00pm 7.0 5.0 6.9 99 0.0 SSE 7 11 4 6 1026.2 1027.5 2.6
01/12:30pm 6.7 3.8 6.4 98 0.1 SSE 11 15 6 8 1026.5 1027.8 2.0
01/12:00pm 6.8 3.9 6.4 97 0.2 SE 11 15 6 8 1026.7 1028.0 1.4
01/11:30am 6.7 3.6 5.7 93 0.5 SE 11 15 6 8 1026.8 1028.2 0.8
01/11:00am 6.9 4.2 5.5 91 0.6 SE 9 13 5 7 1026.9 1028.3 0.2
01/10:30am 6.7 3.9 5.2 90 0.7 SE 9 11 5 6 1027.5 1028.8 0.2
01/10:00am 6.2 3.5 5.6 96 0.3 SSE 9 11 5 6 1027.5 1028.8 0.2
01/09:30am 5.9 3.5 5.3 96 0.3 SSE 7 11 4 6 1027.6 1028.6 0.2
01/09:00am 5.4 3.2 5.3 99 0.0 SE 6 7 3 4 1027.6 1028.6 1.8
01/08:30am 5.2 2.7 4.9 98 0.1 SE 7 7 4 4 1027.8 1028.8 1.6
01/08:00am 5.0 2.4 4.4 96 0.3 SE 7 9 4 5 1027.7 1028.7 1.6
01/07:30am 5.2 2.2 3.9 91 0.6 SSE 9 13 5 7 1027.7 1028.7 0.8
01/07:00am 5.6 2.2 3.9 89 0.7 SSE 11 15 6 8 1027.4 1028.4 0.4
01/06:30am 5.3 2.8 4.7 96 0.3 S 7 11 4 6 1026.7 1027.8 0.4
01/06:00am 5.0 3.4 4.3 95 0.3 SE 2 7 1 4 1026.5 1027.6 0.2
01/05:30am 5.0 3.6 3.8 92 0.5 CALM 0 0 0 0 1026.0 1027.0 0.0
01/05:00am 5.1 3.3 3.3 88 0.8 NE 2 6 1 3 1025.9 1026.9 0.0
01/04:30am 4.7 1.2 3.7 93 0.4 N 11 15 6 8 1025.5 1026.5 0.0
01/04:00am 3.4 1.1 2.7 95 0.3 SE 4 9 2 5 1025.5 1026.5 0.0
01/03:30am 3.7 0.5 2.8 94 0.4 SSW 9 11 5 6 1025.7 1026.7 0.0
01/03:00am 3.2 0.5 2.6 96 0.2 SSW 6 9 3 5 1025.9 1026.9 0.0
01/02:30am 2.9 0.2 2.5 97 0.2 NNW 6 9 3 5 1026.0 1027.0 0.0
01/02:00am 3.7 2.3 3.4 98 0.1 CALM 0 0 0 0 1026.0 1027.0 0.0
01/01:30am 2.3 -0.2 1.7 96 0.2 SE 4 9 2 5 1026.1 1027.1 0.0
01/01:00am 1.5 -0.4 0.8 95 0.3 CALM 0 0 0 0 1026.2 1027.2 0.0
01/12:30am 1.0 -2.3 -0.1 92 0.4 N 7 11 4 6 1026.1 1027.1 0.0
01/12:00am 3.0 0.8 1.2 88 0.7 E 2 11 1 6 1026.0 1027.0 0.0
 
Date/Time
EST
Temp
°C
App
Temp
°C
Dew
Point
°C
Rel
Hum
%
Delta-T
°C
Wind Press
QNH
hPa
Press
MSL
hPa
Rain since
9am
mm
Dir  Spd
km/h
Gust
km/h
Spd
kts
Gust
kts
30/11:30pm 5.1 1.4 2.6 84 1.1 ESE 11 15 6 8 1026.1 1027.1 0.0
30/11:00pm 4.9 1.7 2.9 87 0.8 ESE 9 11 5 6 1026.0 1027.0 0.0
30/10:30pm 4.2 1.0 3.2 93 0.4 SE 9 13 5 7 1026.0 1027.0 0.0
30/10:00pm 2.8 -0.1 1.2 89 0.6 NE 6 9 3 5 1026.1 1027.1 0.0
30/09:30pm 4.5 1.5 2.2 85 1.0 SE 7 9 4 5 1025.8 1026.8 0.0
30/09:00pm 5.2 2.5 3.7 90 0.6 SE 7 9 4 5 1025.9 1026.9 0.0
30/08:30pm 3.3 -0.3 0.9 84 1.0 SSE 9 13 5 7 1025.5 1026.5 0.0
30/08:00pm 5.8 3.0 3.1 83 1.2 ENE 7 9 4 5 1025.2 1026.3 0.0
30/07:30pm 5.8 3.0 3.0 82 1.2 WSW 7 11 4 6 1025.1 1026.2 0.0
30/07:00pm 7.0 2.3 3.4 78 1.6 E 17 19 9 10 1024.6 1025.6 0.0
30/06:30pm 7.2 2.9 3.4 77 1.7 E 15 19 8 10 1024.5 1025.5 0.0
30/06:00pm 6.1 2.2 3.4 83 1.2 E 13 17 7 9 1024.4 1025.4 0.0
30/05:30pm 6.4 3.2 3.2 80 1.4 NE 9 9 5 5 1023.8 1024.8 0.0
30/05:00pm 9.0 6.6 4.2 72 2.2 WSW 6 7 3 4 1023.4 1024.5 0.0
30/04:30pm 10.5 7.7 3.3 61 3.2 WNW 7 9 4 5 1023.1 1024.1 0.0
30/04:00pm 11.1 7.6 3.6 60 3.4 NW 11 13 6 7 1022.9 1023.9 0.0
30/03:30pm 11.8 8.3 3.3 56 3.9 NW 11 13 6 7 1023.0 1024.0 0.0
30/03:00pm 12.2 10.4 3.2 54 4.1 N 2 9 1 5 1022.8 1023.8 0.0
30/02:30pm 12.4 10.5 2.8 52 4.4 N 2 7 1 4 1022.8 1023.8 0.0
30/02:00pm 12.2 9.3 2.6 52 4.3 NNE 7 13 4 7 1023.0 1024.0 0.0
30/01:30pm 12.6 9.7 2.7 51 4.5 NNW 7 9 4 5 1023.3 1024.3 0.0
30/01:00pm 12.2 9.0 3.2 54 4.1 NW 9 13 5 7 1023.6 1024.6 0.0
30/12:30pm 11.9 8.8 3.7 57 3.8 WNW 9 13 5 7 1023.7 1024.7 0.0
30/12:00pm 11.5 8.9 4.0 60 3.5 SW 7 11 4 6 1024.0 1025.0 0.0
30/11:30am 10.8 8.2 3.4 60 3.4 SE 6 9 3 5 1024.1 1025.1 0.0
30/11:00am 9.5 6.8 3.9 68 2.5 SW 7 11 4 6 1024.4 1025.4 0.0
30/10:30am 8.8 7.6 4.4 74 2.0 CALM 0 0 0 0 1024.7 1025.7 0.0
30/10:00am 7.1 5.6 4.9 86 1.0 NNW 2 7 1 4 1024.9 1026.0 0.0
30/09:30am 6.4 5.4 5.4 93 0.5 CALM 0 0 0 0 1025.1 1026.2 0.0
30/09:00am 4.9 3.4 4.8 99 0.0 NNW 2 9 1 5 1025.0 1026.1 0.0
30/08:30am 4.5 3.3 4.4 99 0.0 CALM 0 0 0 0 1024.8 1025.8 0.0
30/08:00am 3.4 1.6 3.3 99 0.0 ESE 2 7 1 4 1024.4 1025.4 0.0
30/07:30am 4.0 0.5 3.7 98 0.1 N 11 17 6 9 1024.8 1025.8 0.0
30/07:00am 4.0 2.6 3.6 97 0.2 CALM 0 0 0 0 1023.8 1024.8 0.0
30/06:30am 4.1 1.0 3.8 98 0.1 ESE 9 11 5 6 1023.2 1024.2 0.0
30/06:00am 4.1 1.4 3.8 98 0.1 SSE 7 9 4 5 1023.1 1024.1 0.0
30/05:30am 4.1 1.0 3.8 98 0.1 SE 9 11 5 6 1022.2 1023.2 0.0
30/05:00am 4.1 0.6 3.7 97 0.2 ESE 11 13 6 7 1022.1 1023.1 0.0
30/04:30am 4.2 1.1 3.6 96 0.3 SE 9 11 5 6 1022.0 1023.0 0.0
30/04:00am 4.3 1.2 3.4 94 0.4 SE 9 13 5 7 1021.8 1022.7 0.0
30/03:30am 4.3 1.2 3.4 94 0.4 SE 9 11 5 6 1021.8 1022.7 0.0
30/03:00am 4.8 2.2 3.1 89 0.7 NNW 6 7 3 4 1021.7 1022.6 0.0
30/02:30am 5.9 4.6 3.9 87 0.9 CALM 0 0 0 0 1021.5 1022.5 0.0
30/02:00am 6.2 2.8 3.9 85 1.0 NNW 11 13 6 7 1021.3 1022.3 0.0
30/01:30am 6.7 3.3 4.2 84 1.1 N 11 15 6 8 1021.7 1022.6 0.0
30/01:00am 6.3 2.5 4.0 85 1.0 N 13 15 7 8 1021.8 1022.7 0.0
30/12:30am 6.1 3.4 3.6 84 1.1 NW 7 7 4 4 1021.9 1022.8 0.0
30/12:00am 6.0 3.4 4.0 87 0.9 ESE 7 13 4 7 1021.8 1022.7 0.0
 
Date/Time
EST
Temp
°C
App
Temp
°C
Dew
Point
°C
Rel
Hum
%
Delta-T
°C
Wind Press
QNH
hPa
Press
MSL
hPa
Rain since
9am
mm
Dir  Spd
km/h
Gust
km/h
Spd
kts
Gust
kts
29/11:30pm 6.3 4.9 3.8 84 1.1 CALM 0 0 0 0 1022.2 1023.2 0.0
29/11:00pm 6.4 3.7 3.6 82 1.2 SSW 7 11 4 6 1022.3 1023.3 0.0
29/10:30pm 6.8 1.9 4.1 83 1.2 N 19 22 10 12 1022.2 1023.2 0.0
29/10:00pm 6.2 2.4 3.9 85 1.0 N 13 15 7 8 1022.4 1023.4 0.0
29/09:30pm 5.3 2.4 2.8 84 1.1 N 7 9 4 5 1022.0 1023.0 0.0
29/09:00pm 6.3 2.4 3.5 82 1.2 NNW 13 15 7 8 1022.7 1023.7 0.0
29/08:30pm 7.0 2.8 4.0 81 1.3 N 15 19 8 10 1022.3 1023.3 0.0
29/08:00pm 6.6 2.7 3.6 81 1.3 N 13 13 7 7 1022.4 1023.4 0.0
29/07:30pm 6.6 3.1 3.6 81 1.3 NNW 11 13 6 7 1022.3 1023.3 0.0
29/07:00pm 6.8 3.6 3.1 77 1.6 NW 9 13 5 7 1022.4 1023.4 0.0
29/06:30pm 7.8 4.0 4.0 77 1.7 NNW 13 15 7 8 1022.4 1023.4 0.0
29/06:00pm 7.9 3.7 3.8 75 1.8 NNW 15 19 8 10 1022.4 1023.4 0.0
29/05:30pm 8.2 2.3 3.9 74 1.9 NNW 24 28 13 15 1022.4 1023.4 0.0
29/05:00pm 8.6 2.0 4.0 73 2.1 NNW 28 33 15 18 1022.5 1023.5 0.0
29/04:30pm 8.9 3.1 4.3 73 2.1 NNW 24 32 13 17 1022.2 1023.2 0.0
29/04:00pm 9.1 2.9 4.3 72 2.2 NW 26 32 14 17 1022.4 1023.4 0.0
29/03:30pm 10.0 3.5 4.6 69 2.5 NNW 28 35 15 19 1022.6 1023.6 0.0

Other formats

Comma delimited format used in spreadsheet applications
http://www.bom.gov.au/fwo/IDN60801/IDN60801.94926.axf

JavaScript Object Notation format (JSON) in row-major order
http://www.bom.gov.au/fwo/IDN60801/IDN60801.94926.json

Data quality

Most of these data are generated automatically and are frequently updated. Quality checks on data are not normally performed. It is possible for incorrect values to appear. Refer to information at About Latest Weather Observations and please check the disclaimer before using these data.